Ashton, ID (83420)

12:28 AM MST on February 08, 2016 (GMT -0700)
ComstockRD | | Change Station
CLOSE
Current Station
Personal Weather Station
Location: Ashton, ID
Elevation: 5260 ft
Nearby Weather Stations
Active Advisory: Dense Fog Advisory

Elev 5260 ft 44.07 °N, 111.45 °W | Updated 39 seconds ago

Overcast
Overcast
23.3 °F
Feels Like 23 °F
N
1.0
Wind Variable Wind from SW
Gusts 1.0 mph

Today
High -- | Low -- °F
--% Chance of Precip.
Yesterday
High -- | Low -- °F
Precip. -- in
Pressure 30.77 in
Visibility 10.0 miles
Clouds Mostly Cloudy 5000 ft
Windchill 23 °F
Dew Point 19 °F
Humidity 82%
Rainfall 0.00 in
Snow Depth Not available.
7:34 AM 5:44 PM
Waning Crescent, 0% visible
METAR KDIJ 080656Z AUTO 00000KT 10SM BKN050 M10/M11 A3061 RMK AO2 SLP419 T11001106
Pressure 30.77 in
Visibility 10.0 miles
Clouds Mostly Cloudy 5000 ft
Windchill 23 °F
Dew Point 19 °F
Humidity 82%
Rainfall 0.00 in
Snow Depth Not available.
7:34 AM 5:44 PM
Waning Crescent, 0% visible
METAR KDIJ 080656Z AUTO 00000KT 10SM BKN050 M10/M11 A3061 RMK AO2 SLP419 T11001106

10-Day Weather Forecast

Almanac

Astronomy

Feb. 08, 2016 Rise Set
Actual Time
Civil Twilight
Nautical Twilight
Astronomical Twilight
Moon
Length of Visible Light
Length of Day
Tomorrow will be .
, % of the Moon is Illuminated

Today's Extremes

State Highs State Lows

Community

WunderPhotos

Upload Photos

1,891,394 photos uploaded!

WunderBlog® & News

Nearby

Air Quality

  Air Quality AQ Index Pollutant
Not available.

Snow Depth

Station Depth Elevation

Earthquake Activity

City Distance Mag. Time & Date
Minimum magnitude displayed is 2.5.

Coastal Water Temperatures

Place Temperature

Stations

Nearby Weather Stations

Station Location Temp. Windchill Dew Point Humidity Wind Precip. Elev Updated Type
                   

Watches & Warnings

Dense Fog Advisory
Issued: 8:23 PM MST Feb. 7, 2016 – National Weather Service

... Dense fog advisory in effect until noon MST Monday...

The National Weather Service in Pocatello has issued a dense fog
advisory... which is in effect until noon MST Monday.

* Visibility... widespread visibility below one mile with areas
near zero.

* Impacts... near zero visibility will cause hazardous driving
conditions. Temperatures below freezing may allow ice to deposit
on roadways.

Precautionary/preparedness actions...

A dense fog advisory means visibilities will frequently be
reduced to less than one quarter mile. If driving... slow down...
use your headlights... and leave plenty of distance ahead of you.